Aviation Digital Data Service (ADDS)

Output produced by METARs form (0755 UTC 20 March 2019)
found at http://www.aviationweather.gov/metar/data/
 
METAR text: PAAK 200728Z AUTO 01012G16KT 6SM -SN FEW024 OVC033 01/M04 A2959 RMK AO2 P0000 FZRANO
Conditions at: PAAK (ATKA , AK, US) observed 0728 UTC 20 March 2019
Temperature: 1.0°C (34°F)
Dewpoint: -4.0°C (25°F) [RH = 69%]
Pressure (altimeter): 29.59 inches Hg (1002.1 mb)
Winds: from the N (10 degrees) at 14 MPH (12 knots; 6.2 m/s)
gusting to 18 MPH (16 knots; 8.2 m/s)
Visibility: 6 miles (10 km)
Ceiling: 3300 feet AGL
Clouds: few clouds at 2400 feet AGL
overcast cloud deck at 3300 feet AGL
Weather: -SN  (light snow)

METAR text: PAAK 200718Z AUTO VRB06KT 4SM -SN SCT021 BKN027 OVC032 01/M03 A2959 RMK AO2 P0000 FZRANO
Conditions at: PAAK (ATKA , AK, US) observed 0718 UTC 20 March 2019
Temperature: 1.0°C (34°F)
Dewpoint: -3.0°C (27°F) [RH = 75%]
Pressure (altimeter): 29.59 inches Hg (1002.1 mb)
Winds: variable direction winds at 7 MPH (6 knots; 3.1 m/s)
Visibility: 4 miles ( 6 km)
Ceiling: 2700 feet AGL
Clouds: scattered clouds at 2100 feet AGL
broken clouds at 2700 feet AGL
overcast cloud deck at 3200 feet AGL
Weather: -SN  (light snow)

METAR text: PAAK 200656Z AUTO 01014G26KT 3SM -SN FEW020 BKN034 OVC045 01/M03 A2960 RMK AO2 PK WND 35026/0653 SLP024 P0000 T00111033 FZRANO
Conditions at: PAAK (ATKA , AK, US) observed 0656 UTC 20 March 2019
Temperature: 1.1°C (34°F)
Dewpoint: -3.3°C (26°F) [RH = 72%]
Pressure (altimeter): 29.60 inches Hg (1002.5 mb)
[Sea-level pressure: 1002.4 mb]
Winds: from the N (10 degrees) at 16 MPH (14 knots; 7.2 m/s)
gusting to 30 MPH (26 knots; 13.4 m/s)
Visibility: 3 miles ( 5 km)
Ceiling: 3400 feet AGL
Clouds: few clouds at 2000 feet AGL
broken clouds at 3400 feet AGL
overcast cloud deck at 4500 feet AGL
Weather: -SN  (light snow)

METAR text: PAAK 200642Z AUTO 36011G16KT 5SM -SN BKN028 OVC037 01/M03 A2959 RMK AO2 P0000 FZRANO
Conditions at: PAAK (ATKA , AK, US) observed 0642 UTC 20 March 2019
Temperature: 1.0°C (34°F)
Dewpoint: -3.0°C (27°F) [RH = 75%]
Pressure (altimeter): 29.59 inches Hg (1002.1 mb)
Winds: from the N (360 degrees) at 13 MPH (11 knots; 5.7 m/s)
gusting to 18 MPH (16 knots; 8.2 m/s)
Visibility: 5 miles ( 8 km)
Ceiling: 2800 feet AGL
Clouds: broken clouds at 2800 feet AGL
overcast cloud deck at 3700 feet AGL
Weather: -SN  (light snow)

METAR text: PAAK 200624Z AUTO 35006G17KT 4SM -SN FEW020 OVC030 01/M03 A2960 RMK AO2 P0000 FZRANO
Conditions at: PAAK (ATKA , AK, US) observed 0624 UTC 20 March 2019
Temperature: 1.0°C (34°F)
Dewpoint: -3.0°C (27°F) [RH = 75%]
Pressure (altimeter): 29.60 inches Hg (1002.5 mb)
Winds: from the N (350 degrees) at 7 MPH (6 knots; 3.1 m/s)
gusting to 20 MPH (17 knots; 8.7 m/s)
Visibility: 4 miles ( 6 km)
Ceiling: 3000 feet AGL
Clouds: few clouds at 2000 feet AGL
overcast cloud deck at 3000 feet AGL
Weather: -SN  (light snow)

METAR text: PAAK 200556Z AUTO 36010G16KT 4SM -SN OVC029 01/M03 A2959 RMK AO2 SLP022 P0000 60000 T00111033 10028 20006 55000 FZRANO
Conditions at: PAAK (ATKA , AK, US) observed 0556 UTC 20 March 2019
Temperature: 1.1°C (34°F)
Dewpoint: -3.3°C (26°F) [RH = 72%]
Pressure (altimeter): 29.59 inches Hg (1002.1 mb)
[Sea-level pressure: 1002.2 mb]
Winds: from the N (360 degrees) at 12 MPH (10 knots; 5.1 m/s)
gusting to 18 MPH (16 knots; 8.2 m/s)
Visibility: 4 miles ( 6 km)
Ceiling: 2900 feet AGL
Clouds: overcast cloud deck at 2900 feet AGL
Weather: -SN  (light snow)

METAR text: PAAK 200513Z AUTO 34006KT 3SM -SN SCT015 OVC025 01/M03 A2959 RMK AO2 P0000 FZRANO
Conditions at: PAAK (ATKA , AK, US) observed 0513 UTC 20 March 2019
Temperature: 1.0°C (34°F)
Dewpoint: -3.0°C (27°F) [RH = 75%]
Pressure (altimeter): 29.59 inches Hg (1002.1 mb)
Winds: from the NNW (340 degrees) at 7 MPH (6 knots; 3.1 m/s)
Visibility: 3 miles ( 5 km)
Ceiling: 2500 feet AGL
Clouds: scattered clouds at 1500 feet AGL
overcast cloud deck at 2500 feet AGL
Weather: -SN  (light snow)

METAR text: PAAK 200456Z AUTO 31009KT 1 3/4SM -SN FEW013 BKN021 OVC025 01/M02 A2959 RMK AO2 VIS 1 1/4V5 SLP021 P0000 T00061022 FZRANO
Conditions at: PAAK (ATKA , AK, US) observed 0456 UTC 20 March 2019
Temperature: 0.6°C (33°F)
Dewpoint: -2.2°C (28°F) [RH = 81%]
Pressure (altimeter): 29.59 inches Hg (1002.1 mb)
[Sea-level pressure: 1002.1 mb]
Winds: from the NW (310 degrees) at 10 MPH (9 knots; 4.6 m/s)
Visibility: 1.75 miles (2.82 km)
Ceiling: 2100 feet AGL
Clouds: few clouds at 1300 feet AGL
broken clouds at 2100 feet AGL
overcast cloud deck at 2500 feet AGL
Weather: -SN  (light snow)

METAR text: PAAK 200453Z AUTO 32012KT 1 1/4SM -SN FEW013 BKN021 OVC025 01/M02 A2959 RMK AO2 VIS 1/2V5 P0000 FZRANO
Conditions at: PAAK (ATKA , AK, US) observed 0453 UTC 20 March 2019
Temperature: 1.0°C (34°F)
Dewpoint: -2.0°C (28°F) [RH = 80%]
Pressure (altimeter): 29.59 inches Hg (1002.1 mb)
Winds: from the NW (320 degrees) at 14 MPH (12 knots; 6.2 m/s)
Visibility: 1.25 miles (2.01 km)
Ceiling: 2100 feet AGL
Clouds: few clouds at 1300 feet AGL
broken clouds at 2100 feet AGL
overcast cloud deck at 2500 feet AGL
Weather: -SN  (light snow)

METAR text: PAAK 200446Z AUTO 32013KT 3/4SM -SN BR SCT013 OVC021 01/M02 A2959 RMK AO2 P0000 FZRANO
Conditions at: PAAK (ATKA , AK, US) observed 0446 UTC 20 March 2019
Temperature: 1.0°C (34°F)
Dewpoint: -2.0°C (28°F) [RH = 80%]
Pressure (altimeter): 29.59 inches Hg (1002.1 mb)
Winds: from the NW (320 degrees) at 15 MPH (13 knots; 6.7 m/s)
Visibility: 0.75 miles (1.21 km)
Ceiling: 2100 feet AGL
Clouds: scattered clouds at 1300 feet AGL
overcast cloud deck at 2100 feet AGL
Weather: -SN BR  (light snow, mist)

METAR text: PAAK 200356Z AUTO 32010G19KT 1 1/4SM -SN BKN019 OVC027 01/M02 A2959 RMK AO2 RAE04SNB04 SLP022 P0000 T00061022 FZRANO
Conditions at: PAAK (ATKA , AK, US) observed 0356 UTC 20 March 2019
Temperature: 0.6°C (33°F)
Dewpoint: -2.2°C (28°F) [RH = 81%]
Pressure (altimeter): 29.59 inches Hg (1002.1 mb)
[Sea-level pressure: 1002.2 mb]
Winds: from the NW (320 degrees) at 12 MPH (10 knots; 5.1 m/s)
gusting to 22 MPH (19 knots; 9.8 m/s)
Visibility: 1.25 miles (2.01 km)
Ceiling: 1900 feet AGL
Clouds: broken clouds at 1900 feet AGL
overcast cloud deck at 2700 feet AGL
Weather: -SN  (light snow)

METAR text: PAAK 200343Z AUTO 36012G18KT 2 1/2SM -SN FEW017 SCT021 OVC027 01/M03 A2960 RMK AO2 VIS 1 1/2V4 RAE04SNB04 P0000 FZRANO
Conditions at: PAAK (ATKA , AK, US) observed 0343 UTC 20 March 2019
Temperature: 1.0°C (34°F)
Dewpoint: -3.0°C (27°F) [RH = 75%]
Pressure (altimeter): 29.60 inches Hg (1002.5 mb)
Winds: from the N (360 degrees) at 14 MPH (12 knots; 6.2 m/s)
gusting to 21 MPH (18 knots; 9.3 m/s)
Visibility: 2.50 miles (4.02 km)
Ceiling: 2700 feet AGL
Clouds: few clouds at 1700 feet AGL
scattered clouds at 2100 feet AGL
overcast cloud deck at 2700 feet AGL
Weather: -SN  (light snow)

METAR text: PAAK 200325Z AUTO 33013KT 1 1/4SM -SN SCT018 BKN027 OVC031 01/M03 A2960 RMK AO2 RAE04SNB04 P0000 FZRANO
Conditions at: PAAK (ATKA , AK, US) observed 0325 UTC 20 March 2019
Temperature: 1.0°C (34°F)
Dewpoint: -3.0°C (27°F) [RH = 75%]
Pressure (altimeter): 29.60 inches Hg (1002.5 mb)
Winds: from the NNW (330 degrees) at 15 MPH (13 knots; 6.7 m/s)
Visibility: 1.25 miles (2.01 km)
Ceiling: 2700 feet AGL
Clouds: scattered clouds at 1800 feet AGL
broken clouds at 2700 feet AGL
overcast cloud deck at 3100 feet AGL
Weather: -SN  (light snow)

METAR text: PAAK 200313Z AUTO 34011G24KT 2SM -SN FEW017 BKN025 OVC041 01/M03 A2960 RMK AO2 RAE04SNB04 P0000 FZRANO
Conditions at: PAAK (ATKA , AK, US) observed 0313 UTC 20 March 2019
Temperature: 1.0°C (34°F)
Dewpoint: -3.0°C (27°F) [RH = 75%]
Pressure (altimeter): 29.60 inches Hg (1002.5 mb)
Winds: from the NNW (340 degrees) at 13 MPH (11 knots; 5.7 m/s)
gusting to 28 MPH (24 knots; 12.3 m/s)
Visibility: 2.00 miles (3.22 km)
Ceiling: 2500 feet AGL
Clouds: few clouds at 1700 feet AGL
broken clouds at 2500 feet AGL
overcast cloud deck at 4100 feet AGL
Weather: -SN  (light snow)

METAR text: PAAK 200256Z AUTO 34012KT 10SM -RA FEW029 BKN038 OVC046 02/M04 A2961 RMK AO2 RAB25 SLP027 P0000 60000 T00171039 58014 FZRANO
Conditions at: PAAK (ATKA , AK, US) observed 0256 UTC 20 March 2019
Temperature: 1.7°C (35°F)
Dewpoint: -3.9°C (25°F) [RH = 66%]
Pressure (altimeter): 29.61 inches Hg (1002.8 mb)
[Sea-level pressure: 1002.7 mb]
Winds: from the NNW (340 degrees) at 14 MPH (12 knots; 6.2 m/s)
Visibility: 10 or more miles (16+ km)
Ceiling: 3800 feet AGL
Clouds: few clouds at 2900 feet AGL
broken clouds at 3800 feet AGL
overcast cloud deck at 4600 feet AGL
Weather: -RA  (light rain)

METAR text: PAAK 200156Z AUTO 35016G21KT 10SM FEW028 BKN036 OVC100 02/M05 A2962 RMK AO2 RAE10 SLP032 P0000 T00221050 FZRANO
Conditions at: PAAK (ATKA , AK, US) observed 0156 UTC 20 March 2019
Temperature: 2.2°C (36°F)
Dewpoint: -5.0°C (23°F) [RH = 59%]
Pressure (altimeter): 29.62 inches Hg (1003.1 mb)
[Sea-level pressure: 1003.2 mb]
Winds: from the N (350 degrees) at 18 MPH (16 knots; 8.2 m/s)
gusting to 24 MPH (21 knots; 10.8 m/s)
Visibility: 10 or more miles (16+ km)
Ceiling: 3600 feet AGL
Clouds: few clouds at 2800 feet AGL
broken clouds at 3600 feet AGL
overcast cloud deck at 10000 feet AGL
Weather: automated observation with no human augmentation;
there may or may not be significant weather present at this time

METAR text: PAAK 200056Z AUTO 36011G21KT 10SM -RA FEW026 BKN031 OVC047 02/M04 A2964 RMK AO2 RAB40SNE40 SLP037 P0000 T00171039 FZRANO
Conditions at: PAAK (ATKA , AK, US) observed 0056 UTC 20 March 2019
Temperature: 1.7°C (35°F)
Dewpoint: -3.9°C (25°F) [RH = 66%]
Pressure (altimeter): 29.64 inches Hg (1003.8 mb)
[Sea-level pressure: 1003.7 mb]
Winds: from the N (360 degrees) at 13 MPH (11 knots; 5.7 m/s)
gusting to 24 MPH (21 knots; 10.8 m/s)
Visibility: 10 or more miles (16+ km)
Ceiling: 3100 feet AGL
Clouds: few clouds at 2600 feet AGL
broken clouds at 3100 feet AGL
overcast cloud deck at 4700 feet AGL
Weather: -RA  (light rain)

METAR text: PAAK 200033Z AUTO 36015G20KT 8SM -SN FEW021 BKN026 OVC034 02/M03 A2964 RMK AO2 P0000 FZRANO
Conditions at: PAAK (ATKA , AK, US) observed 0033 UTC 20 March 2019
Temperature: 2.0°C (36°F)
Dewpoint: -3.0°C (27°F) [RH = 69%]
Pressure (altimeter): 29.64 inches Hg (1003.8 mb)
Winds: from the N (360 degrees) at 17 MPH (15 knots; 7.7 m/s)
gusting to 23 MPH (20 knots; 10.3 m/s)
Visibility: 8 miles (13 km)
Ceiling: 2600 feet AGL
Clouds: few clouds at 2100 feet AGL
broken clouds at 2600 feet AGL
overcast cloud deck at 3400 feet AGL
Weather: -SN  (light snow)

METAR text: PAAK 200023Z AUTO 01008KT 330V070 2SM -SN BR SCT019 BKN026 OVC031 01/M02 A2965 RMK AO2 P0000 FZRANO
Conditions at: PAAK (ATKA , AK, US) observed 0023 UTC 20 March 2019
Temperature: 1.0°C (34°F)
Dewpoint: -2.0°C (28°F) [RH = 80%]
Pressure (altimeter): 29.65 inches Hg (1004.1 mb)
Winds: from the N (10 degrees) at 9 MPH (8 knots; 4.1 m/s)
Visibility: 2.00 miles (3.22 km)
Ceiling: 2600 feet AGL
Clouds: scattered clouds at 1900 feet AGL
broken clouds at 2600 feet AGL
overcast cloud deck at 3100 feet AGL
Weather: -SN BR  (light snow, mist)

METAR text: PAAK 192356Z AUTO 00000KT 1SM -SN FEW011 BKN017 OVC033 01/M02 A2965 RMK AO2 RAB07E43SNB43 SLP041 P0000 60000 T00061022 10022 20000 58010 FZRANO
Conditions at: PAAK (ATKA , AK, US) observed 2356 UTC 19 March 2019
Temperature: 0.6°C (33°F)
Dewpoint: -2.2°C (28°F) [RH = 81%]
Pressure (altimeter): 29.65 inches Hg (1004.1 mb)
[Sea-level pressure: 1004.1 mb]
Winds: calm
Visibility: 1.00 miles (1.61 km)
Ceiling: 1700 feet AGL
Clouds: few clouds at 1100 feet AGL
broken clouds at 1700 feet AGL
overcast cloud deck at 3300 feet AGL
Weather: -SN  (light snow)

METAR text: PAAK 192347Z AUTO 36008G18KT 1SM -SN FEW011 BKN027 OVC033 01/M02 A2966 RMK AO2 RAB07E43SNB43 P0000 FZRANO
Conditions at: PAAK (ATKA , AK, US) observed 2347 UTC 19 March 2019
Temperature: 1.0°C (34°F)
Dewpoint: -2.0°C (28°F) [RH = 80%]
Pressure (altimeter): 29.66 inches Hg (1004.5 mb)
Winds: from the N (360 degrees) at 9 MPH (8 knots; 4.1 m/s)
gusting to 21 MPH (18 knots; 9.3 m/s)
Visibility: 1.00 miles (1.61 km)
Ceiling: 2700 feet AGL
Clouds: few clouds at 1100 feet AGL
broken clouds at 2700 feet AGL
overcast cloud deck at 3300 feet AGL
Weather: -SN  (light snow)

METAR text: PAAK 192341Z AUTO 35011G18KT 2 1/2SM -RA FEW009 BKN027 OVC044 01/M03 A2966 RMK AO2 RAB07 P0000 FZRANO
Conditions at: PAAK (ATKA , AK, US) observed 2341 UTC 19 March 2019
Temperature: 1.0°C (34°F)
Dewpoint: -3.0°C (27°F) [RH = 75%]
Pressure (altimeter): 29.66 inches Hg (1004.5 mb)
Winds: from the N (350 degrees) at 13 MPH (11 knots; 5.7 m/s)
gusting to 21 MPH (18 knots; 9.3 m/s)
Visibility: 2.50 miles (4.02 km)
Ceiling: 2700 feet AGL
Clouds: few clouds at 900 feet AGL
broken clouds at 2700 feet AGL
overcast cloud deck at 4400 feet AGL
Weather: -RA  (light rain)

METAR text: PAAK 192256Z AUTO 36011G17KT 10SM BKN033 OVC043 02/M04 A2966 RMK AO2 RAB10E55SNE10 SLP045 P0000 T00221044 FZRANO
Conditions at: PAAK (ATKA , AK, US) observed 2256 UTC 19 March 2019
Temperature: 2.2°C (36°F)
Dewpoint: -4.4°C (24°F) [RH = 62%]
Pressure (altimeter): 29.66 inches Hg (1004.5 mb)
[Sea-level pressure: 1004.5 mb]
Winds: from the N (360 degrees) at 13 MPH (11 knots; 5.7 m/s)
gusting to 20 MPH (17 knots; 8.7 m/s)
Visibility: 10 or more miles (16+ km)
Ceiling: 3300 feet AGL
Clouds: broken clouds at 3300 feet AGL
overcast cloud deck at 4300 feet AGL
Weather: automated observation with no human augmentation;
there may or may not be significant weather present at this time

METAR text: PAAK 192206Z AUTO 28007KT 9SM -SN FEW014 SCT031 OVC042 01/M02 A2966 RMK AO2 P0000 FZRANO
Conditions at: PAAK (ATKA , AK, US) observed 2206 UTC 19 March 2019
Temperature: 1.0°C (34°F)
Dewpoint: -2.0°C (28°F) [RH = 80%]
Pressure (altimeter): 29.66 inches Hg (1004.5 mb)
Winds: from the W (280 degrees) at 8 MPH (7 knots; 3.6 m/s)
Visibility: 9 miles (14 km)
Ceiling: 4200 feet AGL
Clouds: few clouds at 1400 feet AGL
scattered clouds at 3100 feet AGL
overcast cloud deck at 4200 feet AGL
Weather: -SN  (light snow)

METAR text: PAAK 192156Z AUTO 32007KT 5SM -SN FEW010 BKN018 BKN032 01/M02 A2967 RMK AO2 RAE33SNB33 CIG 011V022 SLP049 P0000 T00061022 FZRANO
Conditions at: PAAK (ATKA , AK, US) observed 2156 UTC 19 March 2019
Temperature: 0.6°C (33°F)
Dewpoint: -2.2°C (28°F) [RH = 81%]
Pressure (altimeter): 29.67 inches Hg (1004.8 mb)
[Sea-level pressure: 1004.9 mb]
Winds: from the NW (320 degrees) at 8 MPH (7 knots; 3.6 m/s)
Visibility: 5 miles ( 8 km)
Ceiling: 1800 feet AGL
Clouds: few clouds at 1000 feet AGL
broken clouds at 1800 feet AGL
broken clouds at 3200 feet AGL
Weather: -SN  (light snow)

METAR text: PAAK 192153Z AUTO 32006KT 2SM -SN FEW010 BKN018 OVC037 01/M02 A2967 RMK AO2 RAE33SNB33 P0000 FZRANO
Conditions at: PAAK (ATKA , AK, US) observed 2153 UTC 19 March 2019
Temperature: 1.0°C (34°F)
Dewpoint: -2.0°C (28°F) [RH = 80%]
Pressure (altimeter): 29.67 inches Hg (1004.8 mb)
Winds: from the NW (320 degrees) at 7 MPH (6 knots; 3.1 m/s)
Visibility: 2.00 miles (3.22 km)
Ceiling: 1800 feet AGL
Clouds: few clouds at 1000 feet AGL
broken clouds at 1800 feet AGL
overcast cloud deck at 3700 feet AGL
Weather: -SN  (light snow)

METAR text: PAAK 192148Z AUTO 31008KT 1SM -SN BR FEW009 BKN014 OVC034 00/M02 A2967 RMK AO2 RAE33SNB33 P0000 FZRANO
Conditions at: PAAK (ATKA , AK, US) observed 2148 UTC 19 March 2019
Temperature: 0.0°C (32°F)
Dewpoint: -2.0°C (28°F) [RH = 86%]
Pressure (altimeter): 29.67 inches Hg (1004.8 mb)
Winds: from the NW (310 degrees) at 9 MPH (8 knots; 4.1 m/s)
Visibility: 1.00 miles (1.61 km)
Ceiling: 1400 feet AGL
Clouds: few clouds at 900 feet AGL
broken clouds at 1400 feet AGL
overcast cloud deck at 3400 feet AGL
Weather: -SN BR  (light snow, mist)

METAR text: PAAK 192140Z AUTO 34012G19KT 3/4SM -SN BR SCT009 BKN018 OVC035 00/M02 A2968 RMK AO2 RAE33SNB33 P0000 FZRANO
Conditions at: PAAK (ATKA , AK, US) observed 2140 UTC 19 March 2019
Temperature: 0.0°C (32°F)
Dewpoint: -2.0°C (28°F) [RH = 86%]
Pressure (altimeter): 29.68 inches Hg (1005.2 mb)
Winds: from the NNW (340 degrees) at 14 MPH (12 knots; 6.2 m/s)
gusting to 22 MPH (19 knots; 9.8 m/s)
Visibility: 0.75 miles (1.21 km)
Ceiling: 1800 feet AGL
Clouds: scattered clouds at 900 feet AGL
broken clouds at 1800 feet AGL
overcast cloud deck at 3500 feet AGL
Weather: -SN BR  (light snow, mist)

METAR text: PAAK 192136Z AUTO 33014G19KT 1 1/2SM -SN FEW009 BKN035 OVC049 01/M03 A2968 RMK AO2 VIS 1/2V5 RAE33SNB33 P0000 FZRANO
Conditions at: PAAK (ATKA , AK, US) observed 2136 UTC 19 March 2019
Temperature: 1.0°C (34°F)
Dewpoint: -3.0°C (27°F) [RH = 75%]
Pressure (altimeter): 29.68 inches Hg (1005.2 mb)
Winds: from the NNW (330 degrees) at 16 MPH (14 knots; 7.2 m/s)
gusting to 22 MPH (19 knots; 9.8 m/s)
Visibility: 1.50 miles (2.41 km)
Ceiling: 3500 feet AGL
Clouds: few clouds at 900 feet AGL
broken clouds at 3500 feet AGL
overcast cloud deck at 4900 feet AGL
Weather: -SN  (light snow)

METAR text: PAAK 192056Z AUTO 00000KT 10SM -RA SCT033 OVC042 01/M06 A2968 RMK AO2 RAB1958E01B30SNB01E30 SLP051 P0000 60000 T00111056 56000 FZRANO
Conditions at: PAAK (ATKA , AK, US) observed 2056 UTC 19 March 2019
Temperature: 1.1°C (34°F)
Dewpoint: -5.6°C (22°F) [RH = 61%]
Pressure (altimeter): 29.68 inches Hg (1005.2 mb)
[Sea-level pressure: 1005.1 mb]
Winds: calm
Visibility: 10 or more miles (16+ km)
Ceiling: 4200 feet AGL
Clouds: scattered clouds at 3300 feet AGL
overcast cloud deck at 4200 feet AGL
Weather: -RA  (light rain)

METAR text: PAAK 191956Z AUTO 34006KT 10SM OVC047 01/M06 A2968 RMK AO2 RAE55 SLP052 P0000 T00111056 FZRANO
Conditions at: PAAK (ATKA , AK, US) observed 1956 UTC 19 March 2019
Temperature: 1.1°C (34°F)
Dewpoint: -5.6°C (22°F) [RH = 61%]
Pressure (altimeter): 29.68 inches Hg (1005.2 mb)
[Sea-level pressure: 1005.2 mb]
Winds: from the NNW (340 degrees) at 7 MPH (6 knots; 3.1 m/s)
Visibility: 10 or more miles (16+ km)
Ceiling: 4700 feet AGL
Clouds: overcast cloud deck at 4700 feet AGL
Weather: automated observation with no human augmentation;
there may or may not be significant weather present at this time

METAR text: PAAK 191856Z AUTO 19005KT 10SM -RA FEW029 OVC044 01/M06 A2967 RMK AO2 UPB20E26RAB26SNE20B40E51 SLP050 P0000 T00111056 FZRANO
Conditions at: PAAK (ATKA , AK, US) observed 1856 UTC 19 March 2019
Temperature: 1.1°C (34°F)
Dewpoint: -5.6°C (22°F) [RH = 61%]
Pressure (altimeter): 29.67 inches Hg (1004.8 mb)
[Sea-level pressure: 1005.0 mb]
Winds: from the S (190 degrees) at 6 MPH (5 knots; 2.6 m/s)
Visibility: 10 or more miles (16+ km)
Ceiling: 4400 feet AGL
Clouds: few clouds at 2900 feet AGL
overcast cloud deck at 4400 feet AGL
Weather: -RA  (light rain)

METAR text: PAAK 191756Z AUTO 05010KT 9SM -SN BKN038 OVC048 01/M04 A2968 RMK AO2 RAB29E48SNB48 SLP051 P0000 60000 T00061044 10011 21006 50001 FZRANO
Conditions at: PAAK (ATKA , AK, US) observed 1756 UTC 19 March 2019
Temperature: 0.6°C (33°F)
Dewpoint: -4.4°C (24°F) [RH = 69%]
Pressure (altimeter): 29.68 inches Hg (1005.2 mb)
[Sea-level pressure: 1005.1 mb]
Winds: from the NE (50 degrees) at 12 MPH (10 knots; 5.1 m/s)
Visibility: 9 miles (14 km)
Ceiling: 3800 feet AGL
Clouds: broken clouds at 3800 feet AGL
overcast cloud deck at 4800 feet AGL
Weather: -SN  (light snow)

METAR text: PAAK 191656Z AUTO 35009KT 10SM BKN044 01/M07 A2968 RMK AO2 RAB34E52 SLP052 P0000 T00061067 FZRANO
Conditions at: PAAK (ATKA , AK, US) observed 1656 UTC 19 March 2019
Temperature: 0.6°C (33°F)
Dewpoint: -6.7°C (20°F) [RH = 58%]
Pressure (altimeter): 29.68 inches Hg (1005.2 mb)
[Sea-level pressure: 1005.2 mb]
Winds: from the N (350 degrees) at 10 MPH (9 knots; 4.6 m/s)
Visibility: 10 or more miles (16+ km)
Ceiling: 4400 feet AGL
Clouds: broken clouds at 4400 feet AGL
Weather: automated observation with no human augmentation;
there may or may not be significant weather present at this time

METAR text: PAAK 191556Z AUTO 35007KT 10SM BKN040 BKN049 OVC060 01/M06 A2968 RMK AO2 UPB20E50SNE20 SLP052 P0000 T00061056 FZRANO
Conditions at: PAAK (ATKA , AK, US) observed 1556 UTC 19 March 2019
Temperature: 0.6°C (33°F)
Dewpoint: -5.6°C (22°F) [RH = 63%]
Pressure (altimeter): 29.68 inches Hg (1005.2 mb)
[Sea-level pressure: 1005.2 mb]
Winds: from the N (350 degrees) at 8 MPH (7 knots; 3.6 m/s)
Visibility: 10 or more miles (16+ km)
Ceiling: 4000 feet AGL
Clouds: broken clouds at 4000 feet AGL
broken clouds at 4900 feet AGL
overcast cloud deck at 6000 feet AGL
Weather: automated observation with no human augmentation;
there may or may not be significant weather present at this time

METAR text: PAAK 191524Z AUTO 00000KT 10SM UP SCT021 BKN038 OVC045 00/M03 A2967 RMK AO2 UPB20SNE20 P0000 FZRANO
Conditions at: PAAK (ATKA , AK, US) observed 1524 UTC 19 March 2019
Temperature: 0.0°C (32°F)
Dewpoint: -3.0°C (27°F) [RH = 80%]
Pressure (altimeter): 29.67 inches Hg (1004.8 mb)
Winds: calm
Visibility: 10 or more miles (16+ km)
Ceiling: 3800 feet AGL
Clouds: scattered clouds at 2100 feet AGL
broken clouds at 3800 feet AGL
overcast cloud deck at 4500 feet AGL
Weather: UP  (unknown precipitation)

METAR text: PAAK 191516Z AUTO 26005KT 9SM -SN SCT018 BKN026 BKN044 M01/M03 A2967 RMK AO2 P0000 FZRANO
Conditions at: PAAK (ATKA , AK, US) observed 1516 UTC 19 March 2019
Temperature: -1.0°C (30°F)
Dewpoint: -3.0°C (27°F) [RH = 86%]
Pressure (altimeter): 29.67 inches Hg (1004.8 mb)
Winds: from the W (260 degrees) at 6 MPH (5 knots; 2.6 m/s)
Visibility: 9 miles (14 km)
Ceiling: 2600 feet AGL
Clouds: scattered clouds at 1800 feet AGL
broken clouds at 2600 feet AGL
broken clouds at 4400 feet AGL
Weather: -SN  (light snow)

METAR text: PAAK 191456Z AUTO 31006KT 2 1/2SM -SN FEW016 BKN022 OVC044 00/M03 A2968 RMK AO2 VIS 1 3/4V4 UPE14SNB14 SLP050 P0000 60000 T00001033 55003 FZRANO
Conditions at: PAAK (ATKA , AK, US) observed 1456 UTC 19 March 2019
Temperature: 0.0°C (32°F)
Dewpoint: -3.3°C (26°F) [RH = 78%]
Pressure (altimeter): 29.68 inches Hg (1005.2 mb)
[Sea-level pressure: 1005.0 mb]
Winds: from the NW (310 degrees) at 7 MPH (6 knots; 3.1 m/s)
Visibility: 2.50 miles (4.02 km)
Ceiling: 2200 feet AGL
Clouds: few clouds at 1600 feet AGL
broken clouds at 2200 feet AGL
overcast cloud deck at 4400 feet AGL
Weather: -SN  (light snow)

METAR text: PAAK 191439Z AUTO 27005KT 5SM -SN BR FEW015 BKN038 OVC048 M01/M03 A2967 RMK AO2 UPE14SNB14 P0000 FZRANO
Conditions at: PAAK (ATKA , AK, US) observed 1439 UTC 19 March 2019
Temperature: -1.0°C (30°F)
Dewpoint: -3.0°C (27°F) [RH = 86%]
Pressure (altimeter): 29.67 inches Hg (1004.8 mb)
Winds: from the W (270 degrees) at 6 MPH (5 knots; 2.6 m/s)
Visibility: 5 miles ( 8 km)
Ceiling: 3800 feet AGL
Clouds: few clouds at 1500 feet AGL
broken clouds at 3800 feet AGL
overcast cloud deck at 4800 feet AGL
Weather: -SN BR  (light snow, mist)

METAR text: PAAK 191430Z AUTO 33004KT 4SM -SN BR FEW015 BKN027 OVC050 M01/M03 A2967 RMK AO2 UPE14SNB14 P0000 FZRANO
Conditions at: PAAK (ATKA , AK, US) observed 1430 UTC 19 March 2019
Temperature: -1.0°C (30°F)
Dewpoint: -3.0°C (27°F) [RH = 86%]
Pressure (altimeter): 29.67 inches Hg (1004.8 mb)
Winds: from the NNW (330 degrees) at 5 MPH (4 knots; 2.1 m/s)
Visibility: 4 miles ( 6 km)
Ceiling: 2700 feet AGL
Clouds: few clouds at 1500 feet AGL
broken clouds at 2700 feet AGL
overcast cloud deck at 5000 feet AGL
Weather: -SN BR  (light snow, mist)

METAR text: PAAK 191423Z AUTO 06004KT 2 1/2SM -SN BR FEW015 BKN027 OVC110 M01/M03 A2968 RMK AO2 UPE14SNB14 P0000 FZRANO
Conditions at: PAAK (ATKA , AK, US) observed 1423 UTC 19 March 2019
Temperature: -1.0°C (30°F)
Dewpoint: -3.0°C (27°F) [RH = 86%]
Pressure (altimeter): 29.68 inches Hg (1005.2 mb)
Winds: from the ENE (60 degrees) at 5 MPH (4 knots; 2.1 m/s)
Visibility: 2.50 miles (4.02 km)
Ceiling: 2700 feet AGL
Clouds: few clouds at 1500 feet AGL
broken clouds at 2700 feet AGL
overcast cloud deck at 11000 feet AGL
Weather: -SN BR  (light snow, mist)

METAR text: PAAK 191356Z AUTO 27003KT 10SM UP FEW014 BKN032 OVC120 00/M04 A2967 RMK AO2 SLP049 P0000 T00001039 FZRANO
Conditions at: PAAK (ATKA , AK, US) observed 1356 UTC 19 March 2019
Temperature: 0.0°C (32°F)
Dewpoint: -3.9°C (25°F) [RH = 75%]
Pressure (altimeter): 29.67 inches Hg (1004.8 mb)
[Sea-level pressure: 1004.9 mb]
Winds: from the W (270 degrees) at 3 MPH (3 knots; 1.5 m/s)
Visibility: 10 or more miles (16+ km)
Ceiling: 3200 feet AGL
Clouds: few clouds at 1400 feet AGL
broken clouds at 3200 feet AGL
overcast cloud deck at 12000 feet AGL
Weather: UP  (unknown precipitation)

METAR text: PAAK 191319Z AUTO 26004KT 4SM UP FEW009 BKN033 OVC047 00/M04 A2968 RMK AO2 P0000 FZRANO
Conditions at: PAAK (ATKA , AK, US) observed 1319 UTC 19 March 2019
Temperature: 0.0°C (32°F)
Dewpoint: -4.0°C (25°F) [RH = 74%]
Pressure (altimeter): 29.68 inches Hg (1005.2 mb)
Winds: from the W (260 degrees) at 5 MPH (4 knots; 2.1 m/s)
Visibility: 4 miles ( 6 km)
Ceiling: 3300 feet AGL
Clouds: few clouds at 900 feet AGL
broken clouds at 3300 feet AGL
overcast cloud deck at 4700 feet AGL
Weather: UP  (unknown precipitation)

METAR text: PAAK 191256Z AUTO 00000KT 10SM UP SCT040 BKN049 OVC110 00/M04 A2968 RMK AO2 UPB29E34B53SNE29 SLP052 P0000 T00001039 FZRANO
Conditions at: PAAK (ATKA , AK, US) observed 1256 UTC 19 March 2019
Temperature: 0.0°C (32°F)
Dewpoint: -3.9°C (25°F) [RH = 75%]
Pressure (altimeter): 29.68 inches Hg (1005.2 mb)
[Sea-level pressure: 1005.2 mb]
Winds: calm
Visibility: 10 or more miles (16+ km)
Ceiling: 4900 feet AGL
Clouds: scattered clouds at 4000 feet AGL
broken clouds at 4900 feet AGL
overcast cloud deck at 11000 feet AGL
Weather: UP  (unknown precipitation)

METAR text: PAAK 191156Z AUTO 06005KT 6SM -SN FEW026 BKN036 OVC060 01/M04 A2968 RMK AO2 UPE26SNB26 SLP053 P0000 60000 70004 T00061039 10011 20000 50005 FZRANO
Conditions at: PAAK (ATKA , AK, US) observed 1156 UTC 19 March 2019
Temperature: 0.6°C (33°F)
Dewpoint: -3.9°C (25°F) [RH = 72%]
Pressure (altimeter): 29.68 inches Hg (1005.2 mb)
[Sea-level pressure: 1005.3 mb]
Winds: from the ENE (60 degrees) at 6 MPH (5 knots; 2.6 m/s)
Visibility: 6 miles (10 km)
Ceiling: 3600 feet AGL
Clouds: few clouds at 2600 feet AGL
broken clouds at 3600 feet AGL
overcast cloud deck at 6000 feet AGL
Weather: -SN  (light snow)

METAR text: PAAK 191056Z AUTO 00000KT 10SM UP FEW014 BKN033 OVC042 00/M03 A2969 RMK AO2 RAE29UPB29E31B53SNB31E53 SLP054 P0000 T00001028 FZRANO
Conditions at: PAAK (ATKA , AK, US) observed 1056 UTC 19 March 2019
Temperature: 0.0°C (32°F)
Dewpoint: -2.8°C (27°F) [RH = 81%]
Pressure (altimeter): 29.69 inches Hg (1005.5 mb)
[Sea-level pressure: 1005.4 mb]
Winds: calm
Visibility: 10 or more miles (16+ km)
Ceiling: 3300 feet AGL
Clouds: few clouds at 1400 feet AGL
broken clouds at 3300 feet AGL
overcast cloud deck at 4200 feet AGL
Weather: UP  (unknown precipitation)

METAR text: PAAK 191050Z AUTO 00000KT 6SM -SN FEW012 SCT020 OVC038 00/M04 A2968 RMK AO2 RAE29UPB29E31SNB31 P0000 FZRANO
Conditions at: PAAK (ATKA , AK, US) observed 1050 UTC 19 March 2019
Temperature: 0.0°C (32°F)
Dewpoint: -4.0°C (25°F) [RH = 74%]
Pressure (altimeter): 29.68 inches Hg (1005.2 mb)
Winds: calm
Visibility: 6 miles (10 km)
Ceiling: 3800 feet AGL
Clouds: few clouds at 1200 feet AGL
scattered clouds at 2000 feet AGL
overcast cloud deck at 3800 feet AGL
Weather: -SN  (light snow)

METAR text: PAAK 191045Z AUTO 00000KT 2SM -SN FEW012 BKN028 OVC042 00/M04 A2968 RMK AO2 RAE29UPB29E31SNB31 P0000 FZRANO
Conditions at: PAAK (ATKA , AK, US) observed 1045 UTC 19 March 2019
Temperature: 0.0°C (32°F)
Dewpoint: -4.0°C (25°F) [RH = 74%]
Pressure (altimeter): 29.68 inches Hg (1005.2 mb)
Winds: calm
Visibility: 2.00 miles (3.22 km)
Ceiling: 2800 feet AGL
Clouds: few clouds at 1200 feet AGL
broken clouds at 2800 feet AGL
overcast cloud deck at 4200 feet AGL
Weather: -SN  (light snow)

METAR text: PAAK 191036Z AUTO 07003KT 1 3/4SM -SN FEW012 BKN032 OVC046 01/M04 A2968 RMK AO2 RAE29UPB29E31SNB31 P0000 FZRANO
Conditions at: PAAK (ATKA , AK, US) observed 1036 UTC 19 March 2019
Temperature: 1.0°C (34°F)
Dewpoint: -4.0°C (25°F) [RH = 69%]
Pressure (altimeter): 29.68 inches Hg (1005.2 mb)
Winds: from the ENE (70 degrees) at 3 MPH (3 knots; 1.5 m/s)
Visibility: 1.75 miles (2.82 km)
Ceiling: 3200 feet AGL
Clouds: few clouds at 1200 feet AGL
broken clouds at 3200 feet AGL
overcast cloud deck at 4600 feet AGL
Weather: -SN  (light snow)

METAR text: PAAK 190956Z AUTO 36009KT 10SM -RA FEW046 OVC070 01/M05 A2968 RMK AO2 UPB24E42RAB42SNE24 SLP051 P0000 T00061050 FZRANO
Conditions at: PAAK (ATKA , AK, US) observed 0956 UTC 19 March 2019
Temperature: 0.6°C (33°F)
Dewpoint: -5.0°C (23°F) [RH = 66%]
Pressure (altimeter): 29.68 inches Hg (1005.2 mb)
[Sea-level pressure: 1005.1 mb]
Winds: from the N (360 degrees) at 10 MPH (9 knots; 4.6 m/s)
Visibility: 10 or more miles (16+ km)
Ceiling: 7000 feet AGL
Clouds: few clouds at 4600 feet AGL
overcast cloud deck at 7000 feet AGL
Weather: -RA  (light rain)

METAR text: PAAK 190923Z AUTO 34006KT 9SM -SN FEW017 SCT024 OVC070 00/M03 A2967 RMK AO2 P0000 FZRANO
Conditions at: PAAK (ATKA , AK, US) observed 0923 UTC 19 March 2019
Temperature: 0.0°C (32°F)
Dewpoint: -3.0°C (27°F) [RH = 80%]
Pressure (altimeter): 29.67 inches Hg (1004.8 mb)
Winds: from the NNW (340 degrees) at 7 MPH (6 knots; 3.1 m/s)
Visibility: 9 miles (14 km)
Ceiling: 7000 feet AGL
Clouds: few clouds at 1700 feet AGL
scattered clouds at 2400 feet AGL
overcast cloud deck at 7000 feet AGL
Weather: -SN  (light snow)

METAR text: PAAK 190907Z AUTO 34006KT 6SM -SN FEW015 BKN027 OVC031 01/M04 A2967 RMK AO2 P0000 FZRANO
Conditions at: PAAK (ATKA , AK, US) observed 0907 UTC 19 March 2019
Temperature: 1.0°C (34°F)
Dewpoint: -4.0°C (25°F) [RH = 69%]
Pressure (altimeter): 29.67 inches Hg (1004.8 mb)
Winds: from the NNW (340 degrees) at 7 MPH (6 knots; 3.1 m/s)
Visibility: 6 miles (10 km)
Ceiling: 2700 feet AGL
Clouds: few clouds at 1500 feet AGL
broken clouds at 2700 feet AGL
overcast cloud deck at 3100 feet AGL
Weather: -SN  (light snow)

METAR text: PAAK 190856Z AUTO 36005KT 8SM -SN FEW022 BKN033 OVC044 01/M04 A2967 RMK AO2 RAB10E48SNE10B48 SLP049 P0000 60000 T00111044 400281006 51016 FZRANO
Conditions at: PAAK (ATKA , AK, US) observed 0856 UTC 19 March 2019
Temperature: 1.1°C (34°F)
Dewpoint: -4.4°C (24°F) [RH = 67%]
Pressure (altimeter): 29.67 inches Hg (1004.8 mb)
[Sea-level pressure: 1004.9 mb]
Winds: from the N (360 degrees) at 6 MPH (5 knots; 2.6 m/s)
Visibility: 8 miles (13 km)
Ceiling: 3300 feet AGL
Clouds: few clouds at 2200 feet AGL
broken clouds at 3300 feet AGL
overcast cloud deck at 4400 feet AGL
Weather: -SN  (light snow)

METAR text: PAAK 190756Z AUTO 36005KT 10SM -SN FEW029 BKN038 OVC055 01/M04 A2966 RMK AO2 RAE08B30E54SNB08E30B54 SLP046 P0000 T00061044 FZRANO
Conditions at: PAAK (ATKA , AK, US) observed 0756 UTC 19 March 2019
Temperature: 0.6°C (33°F)
Dewpoint: -4.4°C (24°F) [RH = 69%]
Pressure (altimeter): 29.66 inches Hg (1004.5 mb)
[Sea-level pressure: 1004.6 mb]
Winds: from the N (360 degrees) at 6 MPH (5 knots; 2.6 m/s)
Visibility: 10 or more miles (16+ km)
Ceiling: 3800 feet AGL
Clouds: few clouds at 2900 feet AGL
broken clouds at 3800 feet AGL
overcast cloud deck at 5500 feet AGL
Weather: -SN  (light snow)

METAR text: PAAK 190656Z AUTO 01006KT 9SM -RA FEW029 BKN038 OVC049 01/M05 A2964 RMK AO2 RAE00B18E37B56SNB00E18B37E56 SLP040 P0000 T00111050 FZRANO
Conditions at: PAAK (ATKA , AK, US) observed 0656 UTC 19 March 2019
Temperature: 1.1°C (34°F)
Dewpoint: -5.0°C (23°F) [RH = 64%]
Pressure (altimeter): 29.64 inches Hg (1003.8 mb)
[Sea-level pressure: 1004.0 mb]
Winds: from the N (10 degrees) at 7 MPH (6 knots; 3.1 m/s)
Visibility: 9 miles (14 km)
Ceiling: 3800 feet AGL
Clouds: few clouds at 2900 feet AGL
broken clouds at 3800 feet AGL
overcast cloud deck at 4900 feet AGL
Weather: -RA  (light rain)

METAR text: PAAK 190556Z AUTO 02007G20KT 9SM -RA BKN033 OVC045 01/M04 A2962 RMK AO2 UPB0458E00RAB44SNE0458 SLP033 P0000 60000 T00061039 10028 20006 51023 FZRANO
Conditions at: PAAK (ATKA , AK, US) observed 0556 UTC 19 March 2019
Temperature: 0.6°C (33°F)
Dewpoint: -3.9°C (25°F) [RH = 72%]
Pressure (altimeter): 29.62 inches Hg (1003.1 mb)
[Sea-level pressure: 1003.3 mb]
Winds: from the NNE (20 degrees) at 8 MPH (7 knots; 3.6 m/s)
gusting to 23 MPH (20 knots; 10.3 m/s)
Visibility: 9 miles (14 km)
Ceiling: 3300 feet AGL
Clouds: broken clouds at 3300 feet AGL
overcast cloud deck at 4500 feet AGL
Weather: -RA  (light rain)

METAR text: PAAK 190456Z AUTO 04007KT 9SM -SN SCT036 OVC045 01/M05 A2960 RMK AO2 RAB12E39SNB39 SLP026 P0000 T00111050 FZRANO
Conditions at: PAAK (ATKA , AK, US) observed 0456 UTC 19 March 2019
Temperature: 1.1°C (34°F)
Dewpoint: -5.0°C (23°F) [RH = 64%]
Pressure (altimeter): 29.60 inches Hg (1002.5 mb)
[Sea-level pressure: 1002.6 mb]
Winds: from the NE (40 degrees) at 8 MPH (7 knots; 3.6 m/s)
Visibility: 9 miles (14 km)
Ceiling: 4500 feet AGL
Clouds: scattered clouds at 3600 feet AGL
overcast cloud deck at 4500 feet AGL
Weather: -SN  (light snow)

METAR text: PAAK 190356Z AUTO 05008KT 10SM SCT042 OVC050 02/M06 A2958 RMK AO2 RAE22 SLP018 P0000 T00221056 FZRANO
Conditions at: PAAK (ATKA , AK, US) observed 0356 UTC 19 March 2019
Temperature: 2.2°C (36°F)
Dewpoint: -5.6°C (22°F) [RH = 56%]
Pressure (altimeter): 29.58 inches Hg (1001.8 mb)
[Sea-level pressure: 1001.8 mb]
Winds: from the NE (50 degrees) at 9 MPH (8 knots; 4.1 m/s)
Visibility: 10 or more miles (16+ km)
Ceiling: 5000 feet AGL
Clouds: scattered clouds at 4200 feet AGL
overcast cloud deck at 5000 feet AGL
Weather: automated observation with no human augmentation;
there may or may not be significant weather present at this time

METAR text: PAAK 190256Z AUTO 07011G14KT 10SM -RA BKN039 OVC048 02/M04 A2956 RMK AO2 RAB32 SLP010 P0000 60000 T00221044 53012 FZRANO
Conditions at: PAAK (ATKA , AK, US) observed 0256 UTC 19 March 2019
Temperature: 2.2°C (36°F)
Dewpoint: -4.4°C (24°F) [RH = 62%]
Pressure (altimeter): 29.56 inches Hg (1001.1 mb)
[Sea-level pressure: 1001.0 mb]
Winds: from the ENE (70 degrees) at 13 MPH (11 knots; 5.7 m/s)
gusting to 16 MPH (14 knots; 7.2 m/s)
Visibility: 10 or more miles (16+ km)
Ceiling: 3900 feet AGL
Clouds: broken clouds at 3900 feet AGL
overcast cloud deck at 4800 feet AGL
Weather: -RA  (light rain)

METAR text: PAAK 190156Z AUTO 05011G22KT 10SM SCT041 03/M04 A2955 RMK AO2 SLP006 T00281044
Conditions at: PAAK (ATKA , AK, US) observed 0156 UTC 19 March 2019
Temperature: 2.8°C (37°F)
Dewpoint: -4.4°C (24°F) [RH = 59%]
Pressure (altimeter): 29.55 inches Hg (1000.8 mb)
[Sea-level pressure: 1000.6 mb]
Winds: from the NE (50 degrees) at 13 MPH (11 knots; 5.7 m/s)
gusting to 25 MPH (22 knots; 11.3 m/s)
Visibility: 10 or more miles (16+ km)
Ceiling: at least 12,000 feet AGL
Clouds: scattered clouds at 4100 feet AGL
Weather: automated observation with no human augmentation;
there may or may not be significant weather present at this time

METAR text: PAAK 190056Z AUTO 08011G15KT 10SM FEW036 SCT042 OVC055 02/M06 A2953 RMK AO2 RAE39 SLP001 P0000 T00221061 FZRANO
Conditions at: PAAK (ATKA , AK, US) observed 0056 UTC 19 March 2019
Temperature: 2.2°C (36°F)
Dewpoint: -6.1°C (21°F) [RH = 54%]
Pressure (altimeter): 29.53 inches Hg (1000.1 mb)
[Sea-level pressure: 1000.1 mb]
Winds: from the E (80 degrees) at 13 MPH (11 knots; 5.7 m/s)
gusting to 17 MPH (15 knots; 7.7 m/s)
Visibility: 10 or more miles (16+ km)
Ceiling: 5500 feet AGL
Clouds: few clouds at 3600 feet AGL
scattered clouds at 4200 feet AGL
overcast cloud deck at 5500 feet AGL
Weather: automated observation with no human augmentation;
there may or may not be significant weather present at this time

METAR text: PAAK 182356Z AUTO 07014KT 10SM -RA BKN040 OVC049 02/M04 A2952 RMK AO2 UPB34E39RAB47SNE34 SLP998 P0000 60002 T00221044 10022 20000 51015 FZRANO
Conditions at: PAAK (ATKA , AK, US) observed 2356 UTC 18 March 2019
Temperature: 2.2°C (36°F)
Dewpoint: -4.4°C (24°F) [RH = 62%]
Pressure (altimeter): 29.52 inches Hg (999.7 mb)
[Sea-level pressure:  999.8 mb]
Winds: from the ENE (70 degrees) at 16 MPH (14 knots; 7.2 m/s)
Visibility: 10 or more miles (16+ km)
Ceiling: 4000 feet AGL
Clouds: broken clouds at 4000 feet AGL
overcast cloud deck at 4900 feet AGL
Weather: -RA  (light rain)

METAR text: PAAK 182311Z AUTO 05009G19KT 3SM -SN SCT028 OVC036 02/M04 A2951 RMK AO2 P0000 FZRANO
Conditions at: PAAK (ATKA , AK, US) observed 2311 UTC 18 March 2019
Temperature: 2.0°C (36°F)
Dewpoint: -4.0°C (25°F) [RH = 64%]
Pressure (altimeter): 29.51 inches Hg (999.4 mb)
Winds: from the NE (50 degrees) at 10 MPH (9 knots; 4.6 m/s)
gusting to 22 MPH (19 knots; 9.8 m/s)
Visibility: 3 miles ( 5 km)
Ceiling: 3600 feet AGL
Clouds: scattered clouds at 2800 feet AGL
overcast cloud deck at 3600 feet AGL
Weather: -SN  (light snow)

METAR text: PAAK 182306Z AUTO 07014G19KT 1 3/4SM -SN FEW028 OVC036 02/M03 A2951 RMK AO2 VIS 1V3 P0000 FZRANO
Conditions at: PAAK (ATKA , AK, US) observed 2306 UTC 18 March 2019
Temperature: 2.0°C (36°F)
Dewpoint: -3.0°C (27°F) [RH = 69%]
Pressure (altimeter): 29.51 inches Hg (999.4 mb)
Winds: from the ENE (70 degrees) at 16 MPH (14 knots; 7.2 m/s)
gusting to 22 MPH (19 knots; 9.8 m/s)
Visibility: 1.75 miles (2.82 km)
Ceiling: 3600 feet AGL
Clouds: few clouds at 2800 feet AGL
overcast cloud deck at 3600 feet AGL
Weather: -SN  (light snow)

METAR text: PAAK 182256Z AUTO 06018G21KT 2 1/2SM -SN FEW015 OVC036 02/M03 A2950 RMK AO2 VIS 1 1/2V4 SLP992 P0001 T00171033 FZRANO
Conditions at: PAAK (ATKA , AK, US) observed 2256 UTC 18 March 2019
Temperature: 1.7°C (35°F)
Dewpoint: -3.3°C (26°F) [RH = 69%]
Pressure (altimeter): 29.50 inches Hg (999.1 mb)
[Sea-level pressure:  999.2 mb]
Winds: from the ENE (60 degrees) at 21 MPH (18 knots; 9.3 m/s)
gusting to 24 MPH (21 knots; 10.8 m/s)
Visibility: 2.50 miles (4.02 km)
Ceiling: 3600 feet AGL
Clouds: few clouds at 1500 feet AGL
overcast cloud deck at 3600 feet AGL
Weather: -SN  (light snow)

METAR text: PAAK 182248Z AUTO 05011G19KT 3SM -SN FEW012 BKN033 OVC040 02/M04 A2951 RMK AO2 P0001 FZRANO
Conditions at: PAAK (ATKA , AK, US) observed 2248 UTC 18 March 2019
Temperature: 2.0°C (36°F)
Dewpoint: -4.0°C (25°F) [RH = 64%]
Pressure (altimeter): 29.51 inches Hg (999.4 mb)
Winds: from the NE (50 degrees) at 13 MPH (11 knots; 5.7 m/s)
gusting to 22 MPH (19 knots; 9.8 m/s)
Visibility: 3 miles ( 5 km)
Ceiling: 3300 feet AGL
Clouds: few clouds at 1200 feet AGL
broken clouds at 3300 feet AGL
overcast cloud deck at 4000 feet AGL
Weather: -SN  (light snow)

METAR text: PAAK 182244Z AUTO 05014G22KT 2 1/2SM -SN FEW012 BKN026 OVC042 02/M04 A2950 RMK AO2 VIS 1 3/4V5 P0001 FZRANO
Conditions at: PAAK (ATKA , AK, US) observed 2244 UTC 18 March 2019
Temperature: 2.0°C (36°F)
Dewpoint: -4.0°C (25°F) [RH = 64%]
Pressure (altimeter): 29.50 inches Hg (999.1 mb)
Winds: from the NE (50 degrees) at 16 MPH (14 knots; 7.2 m/s)
gusting to 25 MPH (22 knots; 11.3 m/s)
Visibility: 2.50 miles (4.02 km)
Ceiling: 2600 feet AGL
Clouds: few clouds at 1200 feet AGL
broken clouds at 2600 feet AGL
overcast cloud deck at 4200 feet AGL
Weather: -SN  (light snow)

METAR text: PAAK 182232Z AUTO 06012G23KT 3/4SM -SN FEW012 BKN018 OVC031 01/M02 A2950 RMK AO2 P0001 FZRANO
Conditions at: PAAK (ATKA , AK, US) observed 2232 UTC 18 March 2019
Temperature: 1.0°C (34°F)
Dewpoint: -2.0°C (28°F) [RH = 80%]
Pressure (altimeter): 29.50 inches Hg (999.1 mb)
Winds: from the ENE (60 degrees) at 14 MPH (12 knots; 6.2 m/s)
gusting to 26 MPH (23 knots; 11.8 m/s)
Visibility: 0.75 miles (1.21 km)
Ceiling: 1800 feet AGL
Clouds: few clouds at 1200 feet AGL
broken clouds at 1800 feet AGL
overcast cloud deck at 3100 feet AGL
Weather: -SN  (light snow)

METAR text: PAAK 182225Z AUTO 07020G23KT 1SM -SN FEW012 BKN028 OVC034 01/M02 A2950 RMK AO2 VIS 1/2V4 P0001 FZRANO
Conditions at: PAAK (ATKA , AK, US) observed 2225 UTC 18 March 2019
Temperature: 1.0°C (34°F)
Dewpoint: -2.0°C (28°F) [RH = 80%]
Pressure (altimeter): 29.50 inches Hg (999.1 mb)
Winds: from the ENE (70 degrees) at 23 MPH (20 knots; 10.3 m/s)
gusting to 26 MPH (23 knots; 11.8 m/s)
Visibility: 1.00 miles (1.61 km)
Ceiling: 2800 feet AGL
Clouds: few clouds at 1200 feet AGL
broken clouds at 2800 feet AGL
overcast cloud deck at 3400 feet AGL
Weather: -SN  (light snow)

METAR text: PAAK 182221Z AUTO 06016G21KT 2SM -SN FEW016 BKN028 OVC043 02/M03 A2949 RMK AO2 VIS 1V5 P0001 FZRANO
Conditions at: PAAK (ATKA , AK, US) observed 2221 UTC 18 March 2019
Temperature: 2.0°C (36°F)
Dewpoint: -3.0°C (27°F) [RH = 69%]
Pressure (altimeter): 29.49 inches Hg (998.7 mb)
Winds: from the ENE (60 degrees) at 18 MPH (16 knots; 8.2 m/s)
gusting to 24 MPH (21 knots; 10.8 m/s)
Visibility: 2.00 miles (3.22 km)
Ceiling: 2800 feet AGL
Clouds: few clouds at 1600 feet AGL
broken clouds at 2800 feet AGL
overcast cloud deck at 4300 feet AGL
Weather: -SN  (light snow)

METAR text: PAAK 182213Z AUTO 07010KT 5SM -SN FEW020 BKN029 OVC035 02/M03 A2949 RMK AO2 P0000 FZRANO
Conditions at: PAAK (ATKA , AK, US) observed 2213 UTC 18 March 2019
Temperature: 2.0°C (36°F)
Dewpoint: -3.0°C (27°F) [RH = 69%]
Pressure (altimeter): 29.49 inches Hg (998.7 mb)
Winds: from the ENE (70 degrees) at 12 MPH (10 knots; 5.1 m/s)
Visibility: 5 miles ( 8 km)
Ceiling: 2900 feet AGL
Clouds: few clouds at 2000 feet AGL
broken clouds at 2900 feet AGL
overcast cloud deck at 3500 feet AGL
Weather: -SN  (light snow)

METAR text: PAAK 182202Z AUTO 04013KT 3SM -SN FEW020 SCT027 OVC033 01/M03 A2950 RMK AO2 P0000 FZRANO
Conditions at: PAAK (ATKA , AK, US) observed 2202 UTC 18 March 2019
Temperature: 1.0°C (34°F)
Dewpoint: -3.0°C (27°F) [RH = 75%]
Pressure (altimeter): 29.50 inches Hg (999.1 mb)
Winds: from the NE (40 degrees) at 15 MPH (13 knots; 6.7 m/s)
Visibility: 3 miles ( 5 km)
Ceiling: 3300 feet AGL
Clouds: few clouds at 2000 feet AGL
scattered clouds at 2700 feet AGL
overcast cloud deck at 3300 feet AGL
Weather: -SN  (light snow)

METAR text: PAAK 182156Z AUTO 06012G17KT 2 1/2SM -SN BKN024 BKN031 OVC040 01/M02 A2950 RMK AO2 VIS 1 1/2V5 RAE06B34E38SNB06 SLP989 P0000 T00111022 FZRANO
Conditions at: PAAK (ATKA , AK, US) observed 2156 UTC 18 March 2019
Temperature: 1.1°C (34°F)
Dewpoint: -2.2°C (28°F) [RH = 79%]
Pressure (altimeter): 29.50 inches Hg (999.1 mb)
[Sea-level pressure:  998.9 mb]
Winds: from the ENE (60 degrees) at 14 MPH (12 knots; 6.2 m/s)
gusting to 20 MPH (17 knots; 8.7 m/s)
Visibility: 2.50 miles (4.02 km)
Ceiling: 2400 feet AGL
Clouds: broken clouds at 2400 feet AGL
broken clouds at 3100 feet AGL
overcast cloud deck at 4000 feet AGL
Weather: -SN  (light snow)

METAR text: PAAK 182152Z AUTO 07008KT 3SM -SN FEW018 BKN028 OVC036 01/M02 A2950 RMK AO2 RAE06B34E38SNB06 P0000 FZRANO
Conditions at: PAAK (ATKA , AK, US) observed 2152 UTC 18 March 2019
Temperature: 1.0°C (34°F)
Dewpoint: -2.0°C (28°F) [RH = 80%]
Pressure (altimeter): 29.50 inches Hg (999.1 mb)
Winds: from the ENE (70 degrees) at 9 MPH (8 knots; 4.1 m/s)
Visibility: 3 miles ( 5 km)
Ceiling: 2800 feet AGL
Clouds: few clouds at 1800 feet AGL
broken clouds at 2800 feet AGL
overcast cloud deck at 3600 feet AGL
Weather: -SN  (light snow)

METAR text: PAAK 182147Z AUTO 06011G20KT 2SM -SN FEW015 BKN027 OVC043 01/M02 A2949 RMK AO2 VIS 1V5 RAE06B34E38SNB06 P0000 FZRANO
Conditions at: PAAK (ATKA , AK, US) observed 2147 UTC 18 March 2019
Temperature: 1.0°C (34°F)
Dewpoint: -2.0°C (28°F) [RH = 80%]
Pressure (altimeter): 29.49 inches Hg (998.7 mb)
Winds: from the ENE (60 degrees) at 13 MPH (11 knots; 5.7 m/s)
gusting to 23 MPH (20 knots; 10.3 m/s)
Visibility: 2.00 miles (3.22 km)
Ceiling: 2700 feet AGL
Clouds: few clouds at 1500 feet AGL
broken clouds at 2700 feet AGL
overcast cloud deck at 4300 feet AGL
Weather: -SN  (light snow)

METAR text: PAAK 182138Z AUTO 07015KT 2 1/2SM -SN FEW018 BKN036 OVC060 01/M02 A2949 RMK AO2 VIS 1V5 RAE06B34E38SNB06 P0000 FZRANO
Conditions at: PAAK (ATKA , AK, US) observed 2138 UTC 18 March 2019
Temperature: 1.0°C (34°F)
Dewpoint: -2.0°C (28°F) [RH = 80%]
Pressure (altimeter): 29.49 inches Hg (998.7 mb)
Winds: from the ENE (70 degrees) at 17 MPH (15 knots; 7.7 m/s)
Visibility: 2.50 miles (4.02 km)
Ceiling: 3600 feet AGL
Clouds: few clouds at 1800 feet AGL
broken clouds at 3600 feet AGL
overcast cloud deck at 6000 feet AGL
Weather: -SN  (light snow)

METAR text: PAAK 182126Z AUTO 05009KT 6SM -SN FEW014 BKN034 OVC065 02/M03 A2948 RMK AO2 RAE06SNB06 P0000 FZRANO
Conditions at: PAAK (ATKA , AK, US) observed 2126 UTC 18 March 2019
Temperature: 2.0°C (36°F)
Dewpoint: -3.0°C (27°F) [RH = 69%]
Pressure (altimeter): 29.48 inches Hg (998.4 mb)
Winds: from the NE (50 degrees) at 10 MPH (9 knots; 4.6 m/s)
Visibility: 6 miles (10 km)
Ceiling: 3400 feet AGL
Clouds: few clouds at 1400 feet AGL
broken clouds at 3400 feet AGL
overcast cloud deck at 6500 feet AGL
Weather: -SN  (light snow)

METAR text: PAAK 182119Z AUTO 04009G19KT 2SM -SN FEW012 BKN018 OVC055 01/M03 A2948 RMK AO2 VIS 3/4V5 RAE06SNB06 P0000 FZRANO
Conditions at: PAAK (ATKA , AK, US) observed 2119 UTC 18 March 2019
Temperature: 1.0°C (34°F)
Dewpoint: -3.0°C (27°F) [RH = 75%]
Pressure (altimeter): 29.48 inches Hg (998.4 mb)
Winds: from the NE (40 degrees) at 10 MPH (9 knots; 4.6 m/s)
gusting to 22 MPH (19 knots; 9.8 m/s)
Visibility: 2.00 miles (3.22 km)
Ceiling: 1800 feet AGL
Clouds: few clouds at 1200 feet AGL
broken clouds at 1800 feet AGL
overcast cloud deck at 5500 feet AGL
Weather: -SN  (light snow)

METAR text: PAAK 182110Z AUTO 07014G21KT 1SM -SN BR FEW010 BKN019 OVC070 01/M02 A2949 RMK AO2 RAE06SNB06 P0000 FZRANO
Conditions at: PAAK (ATKA , AK, US) observed 2110 UTC 18 March 2019
Temperature: 1.0°C (34°F)
Dewpoint: -2.0°C (28°F) [RH = 80%]
Pressure (altimeter): 29.49 inches Hg (998.7 mb)
Winds: from the ENE (70 degrees) at 16 MPH (14 knots; 7.2 m/s)
gusting to 24 MPH (21 knots; 10.8 m/s)
Visibility: 1.00 miles (1.61 km)
Ceiling: 1900 feet AGL
Clouds: few clouds at 1000 feet AGL
broken clouds at 1900 feet AGL
overcast cloud deck at 7000 feet AGL
Weather: -SN BR  (light snow, mist)

METAR text: PAAK 182056Z AUTO 07020G26KT 6SM -RA FEW010 SCT050 BKN060 01/M02 A2948 RMK AO2 PK WND 07026/2051 RAB00E06B30UPB39E42SNB06E30 SLP984 P0001 60001 T00111017 53015 FZRANO
Conditions at: PAAK (ATKA , AK, US) observed 2056 UTC 18 March 2019
Temperature: 1.1°C (34°F)
Dewpoint: -1.7°C (29°F) [RH = 82%]
Pressure (altimeter): 29.48 inches Hg (998.4 mb)
[Sea-level pressure:  998.4 mb]
Winds: from the ENE (70 degrees) at 23 MPH (20 knots; 10.3 m/s)
gusting to 30 MPH (26 knots; 13.4 m/s)
Visibility: 6 miles (10 km)
Ceiling: 6000 feet AGL
Clouds: few clouds at 1000 feet AGL
scattered clouds at 5000 feet AGL
broken clouds at 6000 feet AGL
Weather: -RA  (light rain)

METAR text: PAAK 182026Z AUTO 07009KT 9SM -SN FEW008 BKN037 OVC045 01/M02 A2947 RMK AO2 RAB00E06SNB06 P0001 FZRANO
Conditions at: PAAK (ATKA , AK, US) observed 2026 UTC 18 March 2019
Temperature: 1.0°C (34°F)
Dewpoint: -2.0°C (28°F) [RH = 80%]
Pressure (altimeter): 29.47 inches Hg (998.1 mb)
Winds: from the ENE (70 degrees) at 10 MPH (9 knots; 4.6 m/s)
Visibility: 9 miles (14 km)
Ceiling: 3700 feet AGL
Clouds: few clouds at 800 feet AGL
broken clouds at 3700 feet AGL
overcast cloud deck at 4500 feet AGL
Weather: -SN  (light snow)

METAR text: PAAK 182019Z AUTO 00000KT 2 1/2SM -SN BR FEW008 SCT017 OVC035 01/M01 A2947 RMK AO2 VIS 1/2V5 RAB00E06SNB06 P0001 FZRANO
Conditions at: PAAK (ATKA , AK, US) observed 2019 UTC 18 March 2019
Temperature: 1.0°C (34°F)
Dewpoint: -1.0°C (30°F) [RH = 86%]
Pressure (altimeter): 29.47 inches Hg (998.1 mb)
Winds: calm
Visibility: 2.50 miles (4.02 km)
Ceiling: 3500 feet AGL
Clouds: few clouds at 800 feet AGL
scattered clouds at 1700 feet AGL
overcast cloud deck at 3500 feet AGL
Weather: -SN BR  (light snow, mist)

METAR text: PAAK 182017Z AUTO 00000KT 1SM -SN BR FEW008 BKN027 OVC035 01/M02 A2947 RMK AO2 VIS 1/4V5 RAB00E06SNB06 P0001 FZRANO
Conditions at: PAAK (ATKA , AK, US) observed 2017 UTC 18 March 2019
Temperature: 1.0°C (34°F)
Dewpoint: -2.0°C (28°F) [RH = 80%]
Pressure (altimeter): 29.47 inches Hg (998.1 mb)
Winds: calm
Visibility: 1.00 miles (1.61 km)
Ceiling: 2700 feet AGL
Clouds: few clouds at 800 feet AGL
broken clouds at 2700 feet AGL
overcast cloud deck at 3500 feet AGL
Weather: -SN BR  (light snow, mist)

METAR text: PAAK 182007Z AUTO VRB05KT 1/2SM SN FEW008 BKN027 OVC049 01/M02 A2947 RMK AO2 RAB00E06SNB06 P0000 FZRANO
Conditions at: PAAK (ATKA , AK, US) observed 2007 UTC 18 March 2019
Temperature: 1.0°C (34°F)
Dewpoint: -2.0°C (28°F) [RH = 80%]
Pressure (altimeter): 29.47 inches Hg (998.1 mb)
Winds: variable direction winds at 6 MPH (5 knots; 2.6 m/s)
Visibility: 0.50 miles (0.80 km)
Ceiling: 2700 feet AGL
Clouds: few clouds at 800 feet AGL
broken clouds at 2700 feet AGL
overcast cloud deck at 4900 feet AGL
Weather: SN  (moderate snow)

METAR text: PAAK 182005Z AUTO 05007KT 3/4SM -RA FEW008 BKN034 OVC047 01/M02 A2947 RMK AO2 RAB00 PRESRR P0000 FZRANO
Conditions at: PAAK (ATKA , AK, US) observed 2005 UTC 18 March 2019
Temperature: 1.0°C (34°F)
Dewpoint: -2.0°C (28°F) [RH = 80%]
Pressure (altimeter): 29.47 inches Hg (998.1 mb)
Winds: from the NE (50 degrees) at 8 MPH (7 knots; 3.6 m/s)
Visibility: 0.75 miles (1.21 km)
Ceiling: 3400 feet AGL
Clouds: few clouds at 800 feet AGL
broken clouds at 3400 feet AGL
overcast cloud deck at 4700 feet AGL
Weather: -RA  (light rain)

METAR text: PAAK 182002Z AUTO 04010KT 1 3/4SM -RA FEW012 BKN034 OVC048 02/M03 A2947 RMK AO2 RAB00 P0000 FZRANO
Conditions at: PAAK (ATKA , AK, US) observed 2002 UTC 18 March 2019
Temperature: 2.0°C (36°F)
Dewpoint: -3.0°C (27°F) [RH = 69%]
Pressure (altimeter): 29.47 inches Hg (998.1 mb)
Winds: from the NE (40 degrees) at 12 MPH (10 knots; 5.1 m/s)
Visibility: 1.75 miles (2.82 km)
Ceiling: 3400 feet AGL
Clouds: few clouds at 1200 feet AGL
broken clouds at 3400 feet AGL
overcast cloud deck at 4800 feet AGL
Weather: -RA  (light rain)

METAR text: PAAK 181956Z AUTO VRB04KT 10SM BKN034 OVC050 02/M03 A2946 RMK AO2 UPE04 SLP977 P0000 T00171028 FZRANO
Conditions at: PAAK (ATKA , AK, US) observed 1956 UTC 18 March 2019
Temperature: 1.7°C (35°F)
Dewpoint: -2.8°C (27°F) [RH = 72%]
Pressure (altimeter): 29.46 inches Hg (997.7 mb)
[Sea-level pressure:  997.7 mb]
Winds: variable direction winds at 5 MPH (4 knots; 2.1 m/s)
Visibility: 10 or more miles (16+ km)
Ceiling: 3400 feet AGL
Clouds: broken clouds at 3400 feet AGL
overcast cloud deck at 5000 feet AGL
Weather: automated observation with no human augmentation;
there may or may not be significant weather present at this time